Solitude, Indiana
Current Conditions -  °F | °C
As of 4:55 PM on Tuesday 25 Nov 2014 (Local Time) from KCUL Reporting Station
Clear Clear  
Wind Chill: 28°   Ceiling: Unl
Heat Index: 33°   Visibility: 10mi
Dew Point: 29°   Wind: 6mph
Humidity: 86%   Direction: 10°N
Pressure: 30.18"   Gusts: NA
Location:  37.9469°N, 87.9016°W
Report Text: KCUL 252255Z AUTO 01005KT 10SM CLR 01/M01 A3018 RMK AO2 T00061015
Loading
Personal Weather Stations






























Interactive Weather Map New forecast layout! Learn more

10-Day Weather Forecast

Advertisements
Track Severe Weather on mobile